sensor_id;sensor_type;location;lat;lon;timestamp;temperature;humidity
21033;DHT22;10675;47.976;7.824;2022-08-21T00:01:16;16.90;99.90
21033;DHT22;10675;47.976;7.824;2022-08-21T00:03:43;16.90;99.90
21033;DHT22;10675;47.976;7.824;2022-08-21T00:06:09;16.90;99.90
21033;DHT22;10675;47.976;7.824;2022-08-21T00:08:35;16.90;99.90
21033;DHT22;10675;47.976;7.824;2022-08-21T00:11:01;16.80;99.90
21033;DHT22;10675;47.976;7.824;2022-08-21T00:13:27;16.80;99.90
21033;DHT22;10675;47.976;7.824;2022-08-21T00:15:52;16.90;99.90
21033;DHT22;10675;47.976;7.824;2022-08-21T00:18:18;16.90;99.90
21033;DHT22;10675;47.976;7.824;2022-08-21T00:20:45;16.90;99.90
21033;DHT22;10675;47.976;7.824;2022-08-21T00:23:12;16.90;99.90
21033;DHT22;10675;47.976;7.824;2022-08-21T00:25:38;17.00;99.90
21033;DHT22;10675;47.976;7.824;2022-08-21T00:28:05;17.00;99.90
21033;DHT22;10675;47.976;7.824;2022-08-21T00:30:32;16.90;99.90
21033;DHT22;10675;47.976;7.824;2022-08-21T00:32:58;16.90;99.90
21033;DHT22;10675;47.976;7.824;2022-08-21T00:35:28;16.80;99.90
21033;DHT22;10675;47.976;7.824;2022-08-21T00:37:54;16.80;99.90
21033;DHT22;10675;47.976;7.824;2022-08-21T00:40:46;16.80;99.90
21033;DHT22;10675;47.976;7.824;2022-08-21T00:43:15;16.70;99.90
21033;DHT22;10675;47.976;7.824;2022-08-21T00:45:41;16.60;99.90
21033;DHT22;10675;47.976;7.824;2022-08-21T00:48:07;16.70;99.90
21033;DHT22;10675;47.976;7.824;2022-08-21T00:50:35;16.60;99.90
21033;DHT22;10675;47.976;7.824;2022-08-21T00:53:03;16.60;99.90
21033;DHT22;10675;47.976;7.824;2022-08-21T00:55:31;16.50;99.90
21033;DHT22;10675;47.976;7.824;2022-08-21T00:57:59;16.50;99.90
21033;DHT22;10675;47.976;7.824;2022-08-21T01:00:30;16.60;99.90
21033;DHT22;10675;47.976;7.824;2022-08-21T01:02:58;16.70;99.90
21033;DHT22;10675;47.976;7.824;2022-08-21T01:05:25;16.50;99.90
21033;DHT22;10675;47.976;7.824;2022-08-21T01:07:50;16.30;99.90
21033;DHT22;10675;47.976;7.824;2022-08-21T01:10:17;16.20;99.90
21033;DHT22;10675;47.976;7.824;2022-08-21T01:12:43;16.10;99.90
21033;DHT22;10675;47.976;7.824;2022-08-21T01:15:09;16.20;99.90
21033;DHT22;10675;47.976;7.824;2022-08-21T01:17:36;16.20;99.90
21033;DHT22;10675;47.976;7.824;2022-08-21T01:20:05;16.20;99.90
21033;DHT22;10675;47.976;7.824;2022-08-21T01:22:31;16.20;99.90
21033;DHT22;10675;47.976;7.824;2022-08-21T01:24:57;16.20;99.90
21033;DHT22;10675;47.976;7.824;2022-08-21T01:27:23;16.10;99.90
21033;DHT22;10675;47.976;7.824;2022-08-21T01:30:02;16.20;99.90
21033;DHT22;10675;47.976;7.824;2022-08-21T01:32:33;16.10;99.90
21033;DHT22;10675;47.976;7.824;2022-08-21T01:34:59;16.00;99.90
21033;DHT22;10675;47.976;7.824;2022-08-21T01:37:24;16.00;99.90
21033;DHT22;10675;47.976;7.824;2022-08-21T01:39:50;16.00;99.90
21033;DHT22;10675;47.976;7.824;2022-08-21T01:42:16;16.10;99.90
21033;DHT22;10675;47.976;7.824;2022-08-21T01:44:41;16.00;99.90
21033;DHT22;10675;47.976;7.824;2022-08-21T01:47:09;16.00;99.90
21033;DHT22;10675;47.976;7.824;2022-08-21T01:49:36;16.00;99.90
21033;DHT22;10675;47.976;7.824;2022-08-21T01:52:02;16.00;99.90
21033;DHT22;10675;47.976;7.824;2022-08-21T01:54:29;16.10;99.90
21033;DHT22;10675;47.976;7.824;2022-08-21T01:56:55;16.00;99.90
21033;DHT22;10675;47.976;7.824;2022-08-21T01:59:22;16.00;99.90
21033;DHT22;10675;47.976;7.824;2022-08-21T02:01:48;16.00;99.90
21033;DHT22;10675;47.976;7.824;2022-08-21T02:04:14;16.00;99.90
21033;DHT22;10675;47.976;7.824;2022-08-21T02:06:41;16.00;99.90
21033;DHT22;10675;47.976;7.824;2022-08-21T02:09:09;15.90;99.90
21033;DHT22;10675;47.976;7.824;2022-08-21T02:11:36;15.90;99.90
21033;DHT22;10675;47.976;7.824;2022-08-21T02:14:09;15.80;99.90
21033;DHT22;10675;47.976;7.824;2022-08-21T02:16:37;15.80;99.90
21033;DHT22;10675;47.976;7.824;2022-08-21T02:19:03;15.80;99.90
21033;DHT22;10675;47.976;7.824;2022-08-21T02:21:28;15.80;99.90
21033;DHT22;10675;47.976;7.824;2022-08-21T02:23:54;15.80;99.90
21033;DHT22;10675;47.976;7.824;2022-08-21T02:26:20;15.70;99.90
21033;DHT22;10675;47.976;7.824;2022-08-21T02:28:45;15.70;99.90
21033;DHT22;10675;47.976;7.824;2022-08-21T02:31:11;15.70;99.90
21033;DHT22;10675;47.976;7.824;2022-08-21T02:33:37;15.80;99.90
21033;DHT22;10675;47.976;7.824;2022-08-21T02:36:04;15.70;99.90
21033;DHT22;10675;47.976;7.824;2022-08-21T02:38:32;15.70;99.90
21033;DHT22;10675;47.976;7.824;2022-08-21T02:40:58;15.70;99.90
21033;DHT22;10675;47.976;7.824;2022-08-21T02:43:26;15.70;99.90
21033;DHT22;10675;47.976;7.824;2022-08-21T02:45:53;15.70;99.90
21033;DHT22;10675;47.976;7.824;2022-08-21T02:48:26;15.60;99.90
21033;DHT22;10675;47.976;7.824;2022-08-21T02:51:02;15.70;99.90
21033;DHT22;10675;47.976;7.824;2022-08-21T02:53:29;15.60;99.90
21033;DHT22;10675;47.976;7.824;2022-08-21T02:55:57;15.60;99.90
21033;DHT22;10675;47.976;7.824;2022-08-21T02:58:34;15.60;99.90
21033;DHT22;10675;47.976;7.824;2022-08-21T03:01:00;15.60;99.90
21033;DHT22;10675;47.976;7.824;2022-08-21T03:03:27;15.60;99.90
21033;DHT22;10675;47.976;7.824;2022-08-21T03:05:53;15.50;99.90
21033;DHT22;10675;47.976;7.824;2022-08-21T03:08:19;15.50;99.90
21033;DHT22;10675;47.976;7.824;2022-08-21T03:10:47;15.50;99.90
21033;DHT22;10675;47.976;7.824;2022-08-21T03:13:14;15.60;99.90
21033;DHT22;10675;47.976;7.824;2022-08-21T03:15:40;15.50;99.90
21033;DHT22;10675;47.976;7.824;2022-08-21T03:18:06;15.40;99.90
21033;DHT22;10675;47.976;7.824;2022-08-21T03:20:33;15.40;99.90
21033;DHT22;10675;47.976;7.824;2022-08-21T03:22:59;15.40;99.90
21033;DHT22;10675;47.976;7.824;2022-08-21T03:25:26;15.40;99.90
21033;DHT22;10675;47.976;7.824;2022-08-21T03:27:52;15.30;99.90
21033;DHT22;10675;47.976;7.824;2022-08-21T03:30:19;15.30;99.90
21033;DHT22;10675;47.976;7.824;2022-08-21T03:32:47;15.20;99.90
21033;DHT22;10675;47.976;7.824;2022-08-21T03:35:13;15.20;99.90
21033;DHT22;10675;47.976;7.824;2022-08-21T03:37:39;15.10;99.90
21033;DHT22;10675;47.976;7.824;2022-08-21T03:40:07;15.10;99.90
21033;DHT22;10675;47.976;7.824;2022-08-21T03:42:33;15.10;99.90
21033;DHT22;10675;47.976;7.824;2022-08-21T03:44:59;15.10;99.90
21033;DHT22;10675;47.976;7.824;2022-08-21T03:47:24;14.90;99.90
21033;DHT22;10675;47.976;7.824;2022-08-21T03:49:51;14.90;99.90
21033;DHT22;10675;47.976;7.824;2022-08-21T03:52:16;14.90;99.90
21033;DHT22;10675;47.976;7.824;2022-08-21T03:54:43;15.00;99.90
21033;DHT22;10675;47.976;7.824;2022-08-21T03:57:09;15.00;99.90
21033;DHT22;10675;47.976;7.824;2022-08-21T03:59:36;15.00;99.90
21033;DHT22;10675;47.976;7.824;2022-08-21T04:02:04;15.20;99.90
21033;DHT22;10675;47.976;7.824;2022-08-21T04:04:30;15.30;99.90
21033;DHT22;10675;47.976;7.824;2022-08-21T04:06:57;15.30;99.90
21033;DHT22;10675;47.976;7.824;2022-08-21T04:09:23;15.40;99.90
21033;DHT22;10675;47.976;7.824;2022-08-21T04:11:49;15.20;99.90
21033;DHT22;10675;47.976;7.824;2022-08-21T04:14:15;15.20;99.90
21033;DHT22;10675;47.976;7.824;2022-08-21T04:16:42;15.20;99.90
21033;DHT22;10675;47.976;7.824;2022-08-21T04:19:08;15.20;99.90
21033;DHT22;10675;47.976;7.824;2022-08-21T04:21:35;15.20;99.90
21033;DHT22;10675;47.976;7.824;2022-08-21T04:24:03;15.20;99.90
21033;DHT22;10675;47.976;7.824;2022-08-21T04:26:29;15.10;99.90
21033;DHT22;10675;47.976;7.824;2022-08-21T04:28:56;15.10;99.90
21033;DHT22;10675;47.976;7.824;2022-08-21T04:31:23;15.10;99.90
21033;DHT22;10675;47.976;7.824;2022-08-21T04:33:49;15.10;99.90
21033;DHT22;10675;47.976;7.824;2022-08-21T04:36:14;15.10;99.90
21033;DHT22;10675;47.976;7.824;2022-08-21T04:38:40;15.10;99.90
21033;DHT22;10675;47.976;7.824;2022-08-21T04:41:06;15.10;99.90
21033;DHT22;10675;47.976;7.824;2022-08-21T04:43:32;15.00;99.90
21033;DHT22;10675;47.976;7.824;2022-08-21T04:45:57;15.00;99.90
21033;DHT22;10675;47.976;7.824;2022-08-21T04:48:23;15.00;99.90
21033;DHT22;10675;47.976;7.824;2022-08-21T04:50:54;14.90;99.90
21033;DHT22;10675;47.976;7.824;2022-08-21T04:53:34;15.00;99.90
21033;DHT22;10675;47.976;7.824;2022-08-21T04:56:12;14.90;99.90
21033;DHT22;10675;47.976;7.824;2022-08-21T04:58:38;14.90;99.90
21033;DHT22;10675;47.976;7.824;2022-08-21T05:01:07;15.00;99.90
21033;DHT22;10675;47.976;7.824;2022-08-21T05:03:34;15.00;99.90
21033;DHT22;10675;47.976;7.824;2022-08-21T05:06:04;15.00;99.90
21033;DHT22;10675;47.976;7.824;2022-08-21T05:08:32;15.10;99.90
21033;DHT22;10675;47.976;7.824;2022-08-21T05:10:58;15.30;99.90
21033;DHT22;10675;47.976;7.824;2022-08-21T05:13:24;15.30;99.90
21033;DHT22;10675;47.976;7.824;2022-08-21T05:15:50;15.40;99.90
21033;DHT22;10675;47.976;7.824;2022-08-21T05:18:15;15.50;99.90
21033;DHT22;10675;47.976;7.824;2022-08-21T05:20:41;15.60;99.90
21033;DHT22;10675;47.976;7.824;2022-08-21T05:23:09;15.60;99.90
21033;DHT22;10675;47.976;7.824;2022-08-21T05:25:35;15.60;99.90
21033;DHT22;10675;47.976;7.824;2022-08-21T05:28:01;15.80;99.90
21033;DHT22;10675;47.976;7.824;2022-08-21T05:30:26;15.70;99.90
21033;DHT22;10675;47.976;7.824;2022-08-21T05:32:59;15.80;99.90
21033;DHT22;10675;47.976;7.824;2022-08-21T05:35:27;15.80;99.90
21033;DHT22;10675;47.976;7.824;2022-08-21T05:37:53;15.70;99.90
21033;DHT22;10675;47.976;7.824;2022-08-21T05:40:18;15.80;99.90
21033;DHT22;10675;47.976;7.824;2022-08-21T05:42:44;15.90;99.90
21033;DHT22;10675;47.976;7.824;2022-08-21T05:45:10;16.00;99.90
21033;DHT22;10675;47.976;7.824;2022-08-21T05:47:36;16.00;99.90
21033;DHT22;10675;47.976;7.824;2022-08-21T05:50:03;16.10;99.90
21033;DHT22;10675;47.976;7.824;2022-08-21T05:52:28;16.00;99.90
21033;DHT22;10675;47.976;7.824;2022-08-21T05:54:54;16.10;99.90
21033;DHT22;10675;47.976;7.824;2022-08-21T05:57:20;16.20;99.90
21033;DHT22;10675;47.976;7.824;2022-08-21T05:59:47;16.20;99.90
21033;DHT22;10675;47.976;7.824;2022-08-21T06:02:12;16.30;99.90
21033;DHT22;10675;47.976;7.824;2022-08-21T06:04:38;16.40;99.90
21033;DHT22;10675;47.976;7.824;2022-08-21T06:07:05;16.60;99.90
21033;DHT22;10675;47.976;7.824;2022-08-21T06:09:31;16.80;99.90
21033;DHT22;10675;47.976;7.824;2022-08-21T06:11:56;17.00;99.90
21033;DHT22;10675;47.976;7.824;2022-08-21T06:14:22;17.20;99.90
21033;DHT22;10675;47.976;7.824;2022-08-21T06:16:47;17.40;99.90
21033;DHT22;10675;47.976;7.824;2022-08-21T06:19:13;17.60;99.90
21033;DHT22;10675;47.976;7.824;2022-08-21T06:21:39;17.70;99.90
21033;DHT22;10675;47.976;7.824;2022-08-21T06:24:04;17.90;99.90
21033;DHT22;10675;47.976;7.824;2022-08-21T06:26:30;18.00;99.90
21033;DHT22;10675;47.976;7.824;2022-08-21T06:28:57;18.00;99.90
21033;DHT22;10675;47.976;7.824;2022-08-21T06:31:25;18.20;99.90
21033;DHT22;10675;47.976;7.824;2022-08-21T06:33:51;18.20;99.90
21033;DHT22;10675;47.976;7.824;2022-08-21T06:36:17;18.40;99.90
21033;DHT22;10675;47.976;7.824;2022-08-21T06:38:43;18.60;99.90
21033;DHT22;10675;47.976;7.824;2022-08-21T06:41:09;18.60;99.90
21033;DHT22;10675;47.976;7.824;2022-08-21T06:43:35;18.50;99.90
21033;DHT22;10675;47.976;7.824;2022-08-21T06:46:00;18.60;99.90
21033;DHT22;10675;47.976;7.824;2022-08-21T06:48:26;19.20;99.90
21033;DHT22;10675;47.976;7.824;2022-08-21T06:50:51;18.90;99.90
21033;DHT22;10675;47.976;7.824;2022-08-21T06:53:19;19.00;99.90
21033;DHT22;10675;47.976;7.824;2022-08-21T06:55:46;19.00;99.90
21033;DHT22;10675;47.976;7.824;2022-08-21T06:58:12;19.20;99.90
21033;DHT22;10675;47.976;7.824;2022-08-21T07:00:41;19.30;99.90
21033;DHT22;10675;47.976;7.824;2022-08-21T07:03:15;19.30;99.90
21033;DHT22;10675;47.976;7.824;2022-08-21T07:05:40;19.40;99.90
21033;DHT22;10675;47.976;7.824;2022-08-21T07:08:06;19.40;99.90
21033;DHT22;10675;47.976;7.824;2022-08-21T07:10:32;19.40;99.90
21033;DHT22;10675;47.976;7.824;2022-08-21T07:12:57;19.40;99.90
21033;DHT22;10675;47.976;7.824;2022-08-21T07:15:23;19.20;99.90
21033;DHT22;10675;47.976;7.824;2022-08-21T07:17:48;19.10;99.90
21033;DHT22;10675;47.976;7.824;2022-08-21T07:20:14;19.00;99.90
21033;DHT22;10675;47.976;7.824;2022-08-21T07:22:40;19.00;99.90
21033;DHT22;10675;47.976;7.824;2022-08-21T07:25:06;19.00;99.90
21033;DHT22;10675;47.976;7.824;2022-08-21T07:27:32;19.10;99.90
21033;DHT22;10675;47.976;7.824;2022-08-21T07:29:58;19.00;99.90
21033;DHT22;10675;47.976;7.824;2022-08-21T07:32:24;19.10;99.90
21033;DHT22;10675;47.976;7.824;2022-08-21T07:34:49;19.20;99.90
21033;DHT22;10675;47.976;7.824;2022-08-21T07:37:15;19.40;99.90
21033;DHT22;10675;47.976;7.824;2022-08-21T07:39:40;19.40;99.90
21033;DHT22;10675;47.976;7.824;2022-08-21T07:42:06;19.50;99.90
21033;DHT22;10675;47.976;7.824;2022-08-21T07:44:32;19.40;99.90
21033;DHT22;10675;47.976;7.824;2022-08-21T07:47:00;19.50;99.90
21033;DHT22;10675;47.976;7.824;2022-08-21T07:49:26;19.70;99.90
21033;DHT22;10675;47.976;7.824;2022-08-21T07:51:52;19.80;99.90
21033;DHT22;10675;47.976;7.824;2022-08-21T07:54:18;20.20;99.90
21033;DHT22;10675;47.976;7.824;2022-08-21T07:56:43;20.30;99.90
21033;DHT22;10675;47.976;7.824;2022-08-21T07:59:08;20.50;99.90
21033;DHT22;10675;47.976;7.824;2022-08-21T08:01:34;20.70;99.90
21033;DHT22;10675;47.976;7.824;2022-08-21T08:03:59;21.40;99.90
21033;DHT22;10675;47.976;7.824;2022-08-21T08:06:25;21.50;99.90
21033;DHT22;10675;47.976;7.824;2022-08-21T08:08:51;21.80;99.90
21033;DHT22;10675;47.976;7.824;2022-08-21T08:11:17;21.60;99.90
21033;DHT22;10675;47.976;7.824;2022-08-21T08:13:45;21.50;99.90
21033;DHT22;10675;47.976;7.824;2022-08-21T08:16:11;21.70;99.90
21033;DHT22;10675;47.976;7.824;2022-08-21T08:18:37;21.50;99.90
21033;DHT22;10675;47.976;7.824;2022-08-21T08:21:04;21.50;99.90
21033;DHT22;10675;47.976;7.824;2022-08-21T08:23:30;21.50;99.90
21033;DHT22;10675;47.976;7.824;2022-08-21T08:25:57;21.60;99.90
21033;DHT22;10675;47.976;7.824;2022-08-21T08:28:23;21.90;99.90
21033;DHT22;10675;47.976;7.824;2022-08-21T08:30:49;21.80;99.90
21033;DHT22;10675;47.976;7.824;2022-08-21T08:33:15;22.30;99.30
21033;DHT22;10675;47.976;7.824;2022-08-21T08:35:46;22.10;98.70
21033;DHT22;10675;47.976;7.824;2022-08-21T08:38:13;22.10;99.20
21033;DHT22;10675;47.976;7.824;2022-08-21T08:41:01;22.40;99.00
21033;DHT22;10675;47.976;7.824;2022-08-21T08:43:33;22.50;98.70
21033;DHT22;10675;47.976;7.824;2022-08-21T08:46:04;22.80;98.00
21033;DHT22;10675;47.976;7.824;2022-08-21T08:48:51;22.90;97.50
21033;DHT22;10675;47.976;7.824;2022-08-21T08:51:23;23.20;96.60
21033;DHT22;10675;47.976;7.824;2022-08-21T08:53:51;23.50;95.50
21033;DHT22;10675;47.976;7.824;2022-08-21T08:56:19;23.10;95.50
21033;DHT22;10675;47.976;7.824;2022-08-21T08:58:47;22.90;96.40
21033;DHT22;10675;47.976;7.824;2022-08-21T09:01:17;23.30;94.20
21033;DHT22;10675;47.976;7.824;2022-08-21T09:03:45;23.50;93.20
21033;DHT22;10675;47.976;7.824;2022-08-21T09:06:51;23.20;91.90
21033;DHT22;10675;47.976;7.824;2022-08-21T09:14:36;23.40;92.10
21033;DHT22;10675;47.976;7.824;2022-08-21T09:20:10;23.60;90.60
21033;DHT22;10675;47.976;7.824;2022-08-21T09:23:08;24.00;90.10
21033;DHT22;10675;47.976;7.824;2022-08-21T09:28:35;23.30;85.70
21033;DHT22;10675;47.976;7.824;2022-08-21T09:31:05;23.30;85.50
21033;DHT22;10675;47.976;7.824;2022-08-21T09:33:31;23.70;86.60
21033;DHT22;10675;47.976;7.824;2022-08-21T09:35:57;23.70;85.30
21033;DHT22;10675;47.976;7.824;2022-08-21T09:38:35;24.10;85.20
21033;DHT22;10675;47.976;7.824;2022-08-21T09:41:05;24.10;83.70
21033;DHT22;10675;47.976;7.824;2022-08-21T09:43:33;24.20;82.60
21033;DHT22;10675;47.976;7.824;2022-08-21T09:46:10;24.10;82.70
21033;DHT22;10675;47.976;7.824;2022-08-21T09:48:48;23.90;81.70
21033;DHT22;10675;47.976;7.824;2022-08-21T09:51:18;24.00;80.90
21033;DHT22;10675;47.976;7.824;2022-08-21T09:53:48;24.30;81.00
21033;DHT22;10675;47.976;7.824;2022-08-21T09:56:25;24.20;80.00
21033;DHT22;10675;47.976;7.824;2022-08-21T09:59:28;24.20;80.80
21033;DHT22;10675;47.976;7.824;2022-08-21T10:01:56;24.50;80.50
21033;DHT22;10675;47.976;7.824;2022-08-21T10:04:27;24.60;78.60
21033;DHT22;10675;47.976;7.824;2022-08-21T10:06:53;24.70;78.00
21033;DHT22;10675;47.976;7.824;2022-08-21T10:09:20;24.90;76.80
21033;DHT22;10675;47.976;7.824;2022-08-21T10:11:52;25.00;80.30
21033;DHT22;10675;47.976;7.824;2022-08-21T10:14:50;24.90;75.30
21033;DHT22;10675;47.976;7.824;2022-08-21T10:17:28;24.80;76.30
21033;DHT22;10675;47.976;7.824;2022-08-21T10:20:05;25.00;77.10
21033;DHT22;10675;47.976;7.824;2022-08-21T10:23:02;25.30;77.90
21033;DHT22;10675;47.976;7.824;2022-08-21T10:25:31;25.50;75.80
21033;DHT22;10675;47.976;7.824;2022-08-21T10:28:10;25.50;74.50
21033;DHT22;10675;47.976;7.824;2022-08-21T10:30:52;25.60;76.20
21033;DHT22;10675;47.976;7.824;2022-08-21T10:36:13;25.70;72.50
21033;DHT22;10675;47.976;7.824;2022-08-21T10:38:58;25.80;73.60
21033;DHT22;10675;47.976;7.824;2022-08-21T10:44:14;25.80;70.00
21033;DHT22;10675;47.976;7.824;2022-08-21T10:47:09;25.80;70.80
21033;DHT22;10675;47.976;7.824;2022-08-21T10:55:16;25.80;68.80
21033;DHT22;10675;47.976;7.824;2022-08-21T10:57:54;26.00;70.00
21033;DHT22;10675;47.976;7.824;2022-08-21T11:00:26;25.90;68.50
21033;DHT22;10675;47.976;7.824;2022-08-21T11:05:38;26.00;68.90
21033;DHT22;10675;47.976;7.824;2022-08-21T11:08:14;25.80;66.50
21033;DHT22;10675;47.976;7.824;2022-08-21T11:10:50;25.80;66.60
21033;DHT22;10675;47.976;7.824;2022-08-21T11:13:44;26.00;66.60
21033;DHT22;10675;47.976;7.824;2022-08-21T11:19:09;26.10;67.60
21033;DHT22;10675;47.976;7.824;2022-08-21T11:21:54;25.90;69.60
21033;DHT22;10675;47.976;7.824;2022-08-21T11:29:31;25.80;68.20
21033;DHT22;10675;47.976;7.824;2022-08-21T11:32:56;25.80;68.20
21033;DHT22;10675;47.976;7.824;2022-08-21T11:41:17;25.60;67.00
21033;DHT22;10675;47.976;7.824;2022-08-21T11:43:49;25.60;65.20
21033;DHT22;10675;47.976;7.824;2022-08-21T11:54:55;26.40;66.70
21033;DHT22;10675;47.976;7.824;2022-08-21T11:58:03;26.60;65.50
21033;DHT22;10675;47.976;7.824;2022-08-21T12:00:34;26.60;64.70
21033;DHT22;10675;47.976;7.824;2022-08-21T12:03:25;26.80;66.00
21033;DHT22;10675;47.976;7.824;2022-08-21T12:05:54;26.80;63.90
21033;DHT22;10675;47.976;7.824;2022-08-21T12:08:33;26.90;63.50
21033;DHT22;10675;47.976;7.824;2022-08-21T12:11:08;26.50;63.80
21033;DHT22;10675;47.976;7.824;2022-08-21T12:13:39;25.80;63.90
21033;DHT22;10675;47.976;7.824;2022-08-21T12:16:13;25.70;64.90
21033;DHT22;10675;47.976;7.824;2022-08-21T12:18:40;25.90;65.40
21033;DHT22;10675;47.976;7.824;2022-08-21T12:21:26;26.20;64.80
21033;DHT22;10675;47.976;7.824;2022-08-21T12:27:12;26.10;64.80
21033;DHT22;10675;47.976;7.824;2022-08-21T12:29:37;25.80;64.60
21033;DHT22;10675;47.976;7.824;2022-08-21T12:32:20;25.60;65.60
21033;DHT22;10675;47.976;7.824;2022-08-21T12:34:55;25.60;66.60
21033;DHT22;10675;47.976;7.824;2022-08-21T12:37:38;25.50;67.00
21033;DHT22;10675;47.976;7.824;2022-08-21T12:40:18;25.70;67.40
21033;DHT22;10675;47.976;7.824;2022-08-21T12:42:47;26.20;66.70
21033;DHT22;10675;47.976;7.824;2022-08-21T12:51:13;26.50;64.80
21033;DHT22;10675;47.976;7.824;2022-08-21T12:53:49;26.60;64.10
21033;DHT22;10675;47.976;7.824;2022-08-21T12:56:18;27.10;65.00
21033;DHT22;10675;47.976;7.824;2022-08-21T12:58:50;26.70;63.50
21033;DHT22;10675;47.976;7.824;2022-08-21T13:02:11;26.00;64.30
21033;DHT22;10675;47.976;7.824;2022-08-21T13:04:13;25.60;65.60
21033;DHT22;10675;47.976;7.824;2022-08-21T13:06:45;25.50;66.50
21033;DHT22;10675;47.976;7.824;2022-08-21T13:09:14;25.60;67.20
21033;DHT22;10675;47.976;7.824;2022-08-21T13:11:42;25.60;66.40
21033;DHT22;10675;47.976;7.824;2022-08-21T13:14:37;25.50;66.80
21033;DHT22;10675;47.976;7.824;2022-08-21T13:17:04;25.70;67.30
21033;DHT22;10675;47.976;7.824;2022-08-21T13:19:31;25.40;66.50
21033;DHT22;10675;47.976;7.824;2022-08-21T13:21:57;25.50;67.30
21033;DHT22;10675;47.976;7.824;2022-08-21T13:24:33;25.30;67.40
21033;DHT22;10675;47.976;7.824;2022-08-21T13:26:59;25.20;66.60
21033;DHT22;10675;47.976;7.824;2022-08-21T13:29:32;25.30;67.10
21033;DHT22;10675;47.976;7.824;2022-08-21T13:32:02;25.30;67.30
21033;DHT22;10675;47.976;7.824;2022-08-21T13:34:36;25.20;67.90
21033;DHT22;10675;47.976;7.824;2022-08-21T13:37:05;25.30;68.10
21033;DHT22;10675;47.976;7.824;2022-08-21T13:39:31;25.10;67.40
21033;DHT22;10675;47.976;7.824;2022-08-21T13:41:58;25.90;66.40
21033;DHT22;10675;47.976;7.824;2022-08-21T13:47:01;28.00;64.10
21033;DHT22;10675;47.976;7.824;2022-08-21T13:49:40;28.50;62.60
21033;DHT22;10675;47.976;7.824;2022-08-21T13:52:22;29.00;60.80
21033;DHT22;10675;47.976;7.824;2022-08-21T13:54:58;29.20;57.70
21033;DHT22;10675;47.976;7.824;2022-08-21T13:57:28;29.20;57.50
21033;DHT22;10675;47.976;7.824;2022-08-21T14:00:17;29.40;56.00
21033;DHT22;10675;47.976;7.824;2022-08-21T14:02:46;29.30;56.30
21033;DHT22;10675;47.976;7.824;2022-08-21T14:05:32;28.80;57.00
21033;DHT22;10675;47.976;7.824;2022-08-21T14:08:11;29.00;55.30
21033;DHT22;10675;47.976;7.824;2022-08-21T14:10:43;28.70;56.50
21033;DHT22;10675;47.976;7.824;2022-08-21T14:16:01;28.30;55.30
21033;DHT22;10675;47.976;7.824;2022-08-21T14:18:27;27.70;56.60
21033;DHT22;10675;47.976;7.824;2022-08-21T14:21:07;27.50;57.70
21033;DHT22;10675;47.976;7.824;2022-08-21T14:23:32;27.30;58.70
21033;DHT22;10675;47.976;7.824;2022-08-21T14:26:00;27.40;59.10
21033;DHT22;10675;47.976;7.824;2022-08-21T14:28:33;27.30;60.20
21033;DHT22;10675;47.976;7.824;2022-08-21T14:31:15;27.40;59.50
21033;DHT22;10675;47.976;7.824;2022-08-21T14:33:41;27.20;59.70
21033;DHT22;10675;47.976;7.824;2022-08-21T14:36:07;27.00;58.80
21033;DHT22;10675;47.976;7.824;2022-08-21T14:38:35;26.80;60.10
21033;DHT22;10675;47.976;7.824;2022-08-21T14:41:12;26.70;60.00
21033;DHT22;10675;47.976;7.824;2022-08-21T14:43:41;26.60;59.00
21033;DHT22;10675;47.976;7.824;2022-08-21T14:46:06;26.70;59.90
21033;DHT22;10675;47.976;7.824;2022-08-21T14:48:32;26.80;59.80
21033;DHT22;10675;47.976;7.824;2022-08-21T14:50:57;26.80;61.00
21033;DHT22;10675;47.976;7.824;2022-08-21T14:53:24;26.70;60.70
21033;DHT22;10675;47.976;7.824;2022-08-21T14:55:49;26.80;60.50
21033;DHT22;10675;47.976;7.824;2022-08-21T14:58:31;26.70;60.00
21033;DHT22;10675;47.976;7.824;2022-08-21T15:00:57;26.80;60.90
21033;DHT22;10675;47.976;7.824;2022-08-21T15:03:24;26.80;58.80
21033;DHT22;10675;47.976;7.824;2022-08-21T15:05:50;26.80;58.70
21033;DHT22;10675;47.976;7.824;2022-08-21T15:08:17;26.70;59.30
21033;DHT22;10675;47.976;7.824;2022-08-21T15:10:43;26.70;59.00
21033;DHT22;10675;47.976;7.824;2022-08-21T15:13:09;26.70;59.60
21033;DHT22;10675;47.976;7.824;2022-08-21T15:15:40;26.70;58.80
21033;DHT22;10675;47.976;7.824;2022-08-21T15:18:06;26.70;59.30
21033;DHT22;10675;47.976;7.824;2022-08-21T15:20:32;26.70;60.10
21033;DHT22;10675;47.976;7.824;2022-08-21T15:22:58;26.80;60.70
21033;DHT22;10675;47.976;7.824;2022-08-21T15:25:24;26.80;59.90
21033;DHT22;10675;47.976;7.824;2022-08-21T15:27:50;26.80;59.70
21033;DHT22;10675;47.976;7.824;2022-08-21T15:30:15;26.70;60.00
21033;DHT22;10675;47.976;7.824;2022-08-21T15:32:41;26.60;59.60
21033;DHT22;10675;47.976;7.824;2022-08-21T15:35:07;26.60;61.20
21033;DHT22;10675;47.976;7.824;2022-08-21T15:37:33;26.70;60.60
21033;DHT22;10675;47.976;7.824;2022-08-21T15:39:59;26.60;60.10
21033;DHT22;10675;47.976;7.824;2022-08-21T15:42:25;26.70;60.00
21033;DHT22;10675;47.976;7.824;2022-08-21T15:44:54;26.60;60.10
21033;DHT22;10675;47.976;7.824;2022-08-21T15:47:24;26.50;59.70
21033;DHT22;10675;47.976;7.824;2022-08-21T15:49:50;26.60;60.80
21033;DHT22;10675;47.976;7.824;2022-08-21T15:52:18;26.50;61.40
21033;DHT22;10675;47.976;7.824;2022-08-21T15:54:44;26.60;59.50
21033;DHT22;10675;47.976;7.824;2022-08-21T15:57:12;26.60;59.50
21033;DHT22;10675;47.976;7.824;2022-08-21T15:59:44;26.60;57.90
21033;DHT22;10675;47.976;7.824;2022-08-21T16:02:15;26.50;58.70
21033;DHT22;10675;47.976;7.824;2022-08-21T16:04:40;26.60;58.50
21033;DHT22;10675;47.976;7.824;2022-08-21T16:07:06;26.50;58.50
21033;DHT22;10675;47.976;7.824;2022-08-21T16:09:32;26.40;58.80
21033;DHT22;10675;47.976;7.824;2022-08-21T16:11:59;26.50;59.90
21033;DHT22;10675;47.976;7.824;2022-08-21T16:14:25;26.40;60.80
21033;DHT22;10675;47.976;7.824;2022-08-21T16:16:52;26.40;59.00
21033;DHT22;10675;47.976;7.824;2022-08-21T16:19:18;26.30;58.50
21033;DHT22;10675;47.976;7.824;2022-08-21T16:21:43;26.20;59.40
21033;DHT22;10675;47.976;7.824;2022-08-21T16:24:09;26.20;58.80
21033;DHT22;10675;47.976;7.824;2022-08-21T16:26:35;26.40;58.90
21033;DHT22;10675;47.976;7.824;2022-08-21T16:29:01;26.40;59.00
21033;DHT22;10675;47.976;7.824;2022-08-21T16:31:27;26.40;59.40
21033;DHT22;10675;47.976;7.824;2022-08-21T16:33:55;26.40;56.60
21033;DHT22;10675;47.976;7.824;2022-08-21T16:36:21;26.30;59.10
21033;DHT22;10675;47.976;7.824;2022-08-21T16:38:47;26.40;59.70
21033;DHT22;10675;47.976;7.824;2022-08-21T16:41:16;26.40;60.10
21033;DHT22;10675;47.976;7.824;2022-08-21T16:43:42;26.40;59.50
21033;DHT22;10675;47.976;7.824;2022-08-21T16:46:10;26.40;59.20